createdAt,value
2022-12-19T00:03:28.000Z,52.7
2022-12-19T00:06:56.000Z,59.2
2022-12-19T00:10:24.000Z,49.7
2022-12-19T00:13:52.000Z,52.3
2022-12-19T00:17:19.000Z,55.3
2022-12-19T00:20:51.000Z,59.3
2022-12-19T00:24:19.000Z,49.5
2022-12-19T00:27:48.000Z,60.1
2022-12-19T00:30:37.000Z,58.6
2022-12-19T00:34:08.000Z,56.5
2022-12-19T00:37:36.000Z,54.3
2022-12-19T00:41:10.000Z,57.7
2022-12-19T00:44:38.000Z,54.5
2022-12-19T00:48:06.000Z,50.7
2022-12-19T00:51:37.000Z,47.6
2022-12-19T00:55:05.000Z,55.3
2022-12-19T00:58:40.000Z,55.5
2022-12-19T01:02:08.000Z,56.9
2022-12-19T01:05:54.000Z,52.2
2022-12-19T01:08:43.000Z,57.2
2022-12-19T01:12:11.000Z,55.4
2022-12-19T01:15:40.000Z,55.4
2022-12-19T01:19:08.000Z,63.9
2022-12-19T01:22:36.000Z,57.1
2022-12-19T01:26:04.000Z,60.6
2022-12-19T01:29:32.000Z,57.6
2022-12-19T01:33:14.000Z,52.8
2022-12-19T01:36:42.000Z,60.1
2022-12-19T01:40:10.000Z,51.8
2022-12-19T01:43:38.000Z,58.5
2022-12-19T01:46:27.000Z,61.1
2022-12-19T01:49:55.000Z,54.6
2022-12-19T01:53:23.000Z,52.2
2022-12-19T01:56:54.000Z,60.7
2022-12-19T02:00:22.000Z,64.6
2022-12-19T02:03:50.000Z,61.8
2022-12-19T02:07:18.000Z,56.9
2022-12-19T02:10:46.000Z,59.2
2022-12-19T02:14:17.000Z,56.6
2022-12-19T02:17:44.000Z,63.4
2022-12-19T02:21:13.000Z,51.9
2022-12-19T02:24:02.000Z,55.3
2022-12-19T02:27:30.000Z,49.8
2022-12-19T02:31:01.000Z,61.2
2022-12-19T02:34:39.000Z,61.5
2022-12-19T02:38:07.000Z,53.9
2022-12-19T02:41:35.000Z,60
2022-12-19T02:45:03.000Z,56.9
2022-12-19T02:48:31.000Z,55.7
2022-12-19T02:51:59.000Z,63.5
2022-12-19T02:55:27.000Z,55
2022-12-19T02:58:55.000Z,54.1
2022-12-19T03:01:44.000Z,53.7
2022-12-19T03:05:12.000Z,58.4
2022-12-19T03:08:42.000Z,57.1
2022-12-19T03:12:10.000Z,60.4
2022-12-19T03:15:38.000Z,57.9
2022-12-19T03:19:06.000Z,64.1
2022-12-19T03:22:34.000Z,60.9
2022-12-19T03:26:02.000Z,60.5
2022-12-19T03:29:30.000Z,64.3
2022-12-19T03:32:58.000Z,67.5
2022-12-19T03:36:25.000Z,58.1
2022-12-19T03:39:15.000Z,62.7
2022-12-19T03:42:42.000Z,62.5
2022-12-19T03:46:11.000Z,63.5
2022-12-19T03:49:39.000Z,59.3
2022-12-19T03:53:07.000Z,65
2022-12-19T03:56:35.000Z,65.6
2022-12-19T04:00:02.000Z,61
2022-12-19T04:03:31.000Z,60
2022-12-19T04:06:59.000Z,64.8
2022-12-19T04:10:27.000Z,66.7
2022-12-19T04:13:55.000Z,59.7
2022-12-19T04:16:44.000Z,59.5
2022-12-19T04:20:12.000Z,64.7
2022-12-19T04:23:40.000Z,61.2
2022-12-19T04:27:08.000Z,59.5
2022-12-19T04:30:35.000Z,61.2
2022-12-19T04:34:03.000Z,55.6
2022-12-19T04:37:31.000Z,58.1
2022-12-19T04:40:59.000Z,55.7
2022-12-19T04:44:27.000Z,62.5
2022-12-19T04:47:55.000Z,60.2
2022-12-19T04:51:23.000Z,62.9
2022-12-19T04:54:12.000Z,68
2022-12-19T04:57:41.000Z,70.8
2022-12-19T05:01:08.000Z,61
2022-12-19T05:04:37.000Z,61.7
2022-12-19T05:08:05.000Z,57
2022-12-19T05:11:33.000Z,66.8
2022-12-19T05:15:01.000Z,65.8
2022-12-19T05:18:29.000Z,58.4
2022-12-19T05:21:57.000Z,59.7
2022-12-19T05:25:25.000Z,62.4
2022-12-19T05:28:53.000Z,61.3
2022-12-19T05:31:43.000Z,63
2022-12-19T05:35:10.000Z,67.6
2022-12-19T05:38:38.000Z,58.6
2022-12-19T05:42:06.000Z,58.5
2022-12-19T05:45:34.000Z,58.1
2022-12-19T05:49:02.000Z,58.8
2022-12-19T05:52:30.000Z,59.2
2022-12-19T05:55:58.000Z,62
2022-12-19T05:59:29.000Z,57.8
2022-12-19T06:02:57.000Z,64.6
2022-12-19T06:06:25.000Z,62.3
2022-12-19T06:09:14.000Z,57.1
2022-12-19T06:12:42.000Z,60.9
2022-12-19T06:16:10.000Z,55.8
2022-12-19T06:19:38.000Z,55.8
2022-12-19T06:23:06.000Z,61.7
2022-12-19T06:26:34.000Z,66
2022-12-19T06:30:02.000Z,64.2
2022-12-19T06:33:30.000Z,63.9
2022-12-19T06:37:01.000Z,56
2022-12-19T06:40:29.000Z,58.1
2022-12-19T06:43:57.000Z,58.7
2022-12-19T06:46:46.000Z,63.1
2022-12-19T06:50:14.000Z,58.7
2022-12-19T06:53:42.000Z,57.3
2022-12-19T06:57:10.000Z,57.8
2022-12-19T07:00:38.000Z,61
2022-12-19T07:04:06.000Z,58.5
2022-12-19T07:07:34.000Z,49.7
2022-12-19T07:11:02.000Z,59.7
2022-12-19T07:14:30.000Z,59.8
2022-12-19T07:17:58.000Z,61.8
2022-12-19T07:21:26.000Z,57.9
2022-12-19T07:24:15.000Z,63.1
2022-12-19T07:27:43.000Z,64.5
2022-12-19T07:31:12.000Z,64.5
2022-12-19T07:34:40.000Z,60.3
2022-12-19T07:38:07.000Z,61.3
2022-12-19T07:41:35.000Z,56.4
2022-12-19T07:45:03.000Z,59.3
2022-12-19T07:48:31.000Z,62.8
2022-12-19T07:51:59.000Z,57.2
2022-12-19T07:55:27.000Z,61.5
2022-12-19T07:58:55.000Z,61.9
2022-12-19T08:01:44.000Z,66.7
2022-12-19T08:05:12.000Z,56.7
2022-12-19T08:08:40.000Z,56.6
2022-12-19T08:12:08.000Z,61.4
2022-12-19T08:15:42.000Z,53.9
2022-12-19T08:19:18.000Z,58.6
2022-12-19T08:22:48.000Z,59
2022-12-19T08:26:16.000Z,58.9
2022-12-19T08:29:45.000Z,60.5
2022-12-19T08:33:14.000Z,53
2022-12-19T08:36:42.000Z,53.1
2022-12-19T08:39:31.000Z,62.4
2022-12-19T08:42:59.000Z,57.6
2022-12-19T08:46:26.000Z,63
2022-12-19T08:49:54.000Z,62.1
2022-12-19T08:53:22.000Z,61.4
2022-12-19T08:56:51.000Z,58.6
2022-12-19T09:00:19.000Z,54.1
2022-12-19T09:03:48.000Z,63.4
2022-12-19T09:09:23.000Z,52.9
2022-12-19T09:12:51.000Z,50.7
2022-12-19T09:16:19.000Z,62.7
2022-12-19T09:19:09.000Z,50.2
2022-12-19T09:22:37.000Z,63.3
2022-12-19T09:26:05.000Z,58.2
2022-12-19T09:30:14.000Z,61.7
2022-12-19T09:33:41.000Z,59.7
2022-12-19T09:37:09.000Z,57.5
2022-12-19T09:40:38.000Z,60.9
2022-12-19T09:44:06.000Z,64.1
2022-12-19T09:47:34.000Z,61.3
2022-12-19T09:51:02.000Z,63.7
2022-12-19T09:54:31.000Z,55.6
2022-12-19T09:57:21.000Z,62.9
2022-12-19T10:00:49.000Z,65.8
2022-12-19T10:04:21.000Z,59.4
2022-12-19T10:13:13.000Z,60.8
2022-12-19T10:16:41.000Z,67.1
2022-12-19T10:20:50.000Z,62.7
2022-12-19T10:24:18.000Z,64.6
2022-12-19T10:27:52.000Z,68
2022-12-19T10:31:21.000Z,53.6
2022-12-19T10:34:49.000Z,66.9
2022-12-19T10:38:38.000Z,56.2
2022-12-19T10:41:27.000Z,63.7
2022-12-19T10:45:08.000Z,62.1
2022-12-19T10:48:36.000Z,61.8
2022-12-19T10:52:06.000Z,61.2
2022-12-19T10:55:34.000Z,59.9
2022-12-19T10:59:02.000Z,65.6
2022-12-19T11:02:32.000Z,60.3
2022-12-19T11:06:00.000Z,57.5
2022-12-19T11:09:28.000Z,56.1
2022-12-19T11:19:06.000Z,44.4
2022-12-19T11:34:36.000Z,56.1
2022-12-19T11:37:27.000Z,58.9
2022-12-19T11:40:55.000Z,62.2
2022-12-19T11:44:25.000Z,68
2022-12-19T11:47:54.000Z,53.2
2022-12-19T11:51:25.000Z,62.3
2022-12-19T11:55:03.000Z,57.8
2022-12-19T11:58:35.000Z,57.1
2022-12-19T12:02:08.000Z,55.5
2022-12-19T12:06:01.000Z,54.7
2022-12-19T12:12:44.000Z,58.6
2022-12-19T12:41:38.000Z,56.6
2022-12-19T12:45:11.000Z,58.8
2022-12-19T12:48:44.000Z,56.5
2022-12-19T12:52:16.000Z,56.7
2022-12-19T12:55:49.000Z,59.3
2022-12-19T12:59:23.000Z,52.1
2022-12-19T13:02:56.000Z,60.2
2022-12-19T13:06:29.000Z,55.1
2022-12-19T13:10:02.000Z,54.3
2022-12-19T13:13:35.000Z,63.2
2022-12-19T13:17:09.000Z,62.4
2022-12-19T13:20:00.000Z,52.3
2022-12-19T13:23:33.000Z,62
2022-12-19T13:27:06.000Z,58
2022-12-19T13:30:38.000Z,58.1
2022-12-19T13:34:46.000Z,59.3
2022-12-19T13:42:01.000Z,56.7
2022-12-19T13:45:34.000Z,60.4
2022-12-19T13:49:07.000Z,61.4
2022-12-19T13:52:39.000Z,61.7
2022-12-19T13:56:12.000Z,57.6
2022-12-19T13:59:44.000Z,58.4
2022-12-19T14:02:45.000Z,63.1
2022-12-19T14:06:18.000Z,65.2
2022-12-19T14:09:50.000Z,58.9
2022-12-19T14:15:57.000Z,60.7
2022-12-19T14:19:30.000Z,53
2022-12-19T14:24:13.000Z,56.5
2022-12-19T14:30:27.000Z,52.8
2022-12-19T14:35:52.000Z,64.8
2022-12-19T14:41:24.000Z,58.4
2022-12-19T14:53:41.000Z,51.4
2022-12-19T14:58:57.000Z,52.3
2022-12-19T15:01:48.000Z,58.4
2022-12-19T15:05:21.000Z,56.7
2022-12-19T15:09:09.000Z,60.9
2022-12-19T15:19:00.000Z,91
2022-12-19T15:22:33.000Z,69.3
2022-12-19T15:26:06.000Z,74.9
2022-12-19T15:29:38.000Z,86.1
2022-12-19T15:33:11.000Z,74.7
2022-12-19T15:36:50.000Z,66.1
2022-12-19T15:40:22.000Z,80.1
2022-12-19T15:43:55.000Z,65.8
2022-12-19T15:46:42.000Z,73.5
2022-12-19T15:50:15.000Z,79.2
2022-12-19T15:53:48.000Z,77.9
2022-12-19T15:57:40.000Z,65.5
2022-12-19T16:01:13.000Z,77.2
2022-12-19T16:05:22.000Z,67.4
2022-12-19T16:08:55.000Z,73.5
2022-12-19T16:12:28.000Z,73.9
2022-12-19T16:16:00.000Z,73.9
2022-12-19T16:19:36.000Z,90.2
2022-12-19T16:23:04.000Z,77.1
2022-12-19T16:25:55.000Z,77.7
2022-12-19T16:29:28.000Z,76.8
2022-12-19T16:33:07.000Z,92.6
2022-12-19T16:36:35.000Z,114.3
2022-12-19T16:40:03.000Z,129
2022-12-19T16:43:39.000Z,110.3
2022-12-19T16:47:07.000Z,94.2
2022-12-19T16:50:35.000Z,107.1
2022-12-19T16:54:03.000Z,93.9
2022-12-19T16:57:32.000Z,90.4
2022-12-19T17:01:00.000Z,82.9
2022-12-19T17:03:49.000Z,94.4
2022-12-19T17:07:17.000Z,88.8
2022-12-19T17:10:45.000Z,93.3
2022-12-19T17:14:13.000Z,96
2022-12-19T17:17:47.000Z,87.7
2022-12-19T17:21:15.000Z,88
2022-12-19T17:24:43.000Z,79.5
2022-12-19T17:28:14.000Z,77.2
2022-12-19T17:31:42.000Z,84.5
2022-12-19T17:35:10.000Z,72.1
2022-12-19T17:38:46.000Z,84.1
2022-12-19T17:41:35.000Z,78.5
2022-12-19T17:45:04.000Z,81.4
2022-12-19T17:48:32.000Z,81.8
2022-12-19T17:52:00.000Z,79.3
2022-12-19T17:55:27.000Z,77.1
2022-12-19T17:58:55.000Z,73.2
2022-12-19T18:02:27.000Z,75.9
2022-12-19T18:05:55.000Z,70.4
2022-12-19T18:09:32.000Z,68.9
2022-12-19T18:13:00.000Z,79.4
2022-12-19T18:16:28.000Z,65.7
2022-12-19T18:19:17.000Z,70.7
2022-12-19T18:22:45.000Z,74.3
2022-12-19T18:26:13.000Z,74.1
2022-12-19T18:29:41.000Z,76
2022-12-19T18:33:09.000Z,75.2
2022-12-19T18:36:37.000Z,78.5
2022-12-19T18:40:05.000Z,79.6
2022-12-19T18:43:42.000Z,78.7
2022-12-19T18:47:11.000Z,80.3
2022-12-19T18:50:40.000Z,75.3
2022-12-19T18:54:08.000Z,65.7
2022-12-19T18:56:58.000Z,67.1
2022-12-19T19:00:26.000Z,67.1
2022-12-19T19:03:54.000Z,77.4
2022-12-19T19:07:22.000Z,69.8
2022-12-19T19:10:50.000Z,75.2
2022-12-19T19:14:18.000Z,78.7
2022-12-19T19:17:46.000Z,61.4
2022-12-19T19:21:15.000Z,72
2022-12-19T19:24:43.000Z,75.6
2022-12-19T19:28:11.000Z,80.7
2022-12-19T19:31:39.000Z,70
2022-12-19T19:34:28.000Z,73.7
2022-12-19T19:38:03.000Z,73.2
2022-12-19T19:41:31.000Z,74.9
2022-12-19T19:44:59.000Z,75.8
2022-12-19T19:48:28.000Z,74.5
2022-12-19T19:51:56.000Z,77
2022-12-19T19:55:24.000Z,78.3
2022-12-19T19:58:52.000Z,96
2022-12-19T20:02:20.000Z,89.3
2022-12-19T20:05:48.000Z,91.7
2022-12-19T20:09:16.000Z,94.5
2022-12-19T20:12:06.000Z,85.2
2022-12-19T20:15:34.000Z,89.9
2022-12-19T20:19:10.000Z,78.6
2022-12-19T20:22:38.000Z,74.9
2022-12-19T20:26:05.000Z,66.1
2022-12-19T20:29:33.000Z,77.7
2022-12-19T20:33:01.000Z,80.7
2022-12-19T20:36:29.000Z,83.3
2022-12-19T20:39:57.000Z,73.3
2022-12-19T20:43:25.000Z,72.3
2022-12-19T20:46:53.000Z,71
2022-12-19T20:49:43.000Z,69.5
2022-12-19T20:53:11.000Z,79.1
2022-12-19T20:56:39.000Z,71.3
2022-12-19T21:00:07.000Z,72.2
2022-12-19T21:03:35.000Z,73.5
2022-12-19T21:07:04.000Z,75.5
2022-12-19T21:10:32.000Z,70
2022-12-19T21:14:00.000Z,66.2
2022-12-19T21:17:28.000Z,73.1
2022-12-19T21:20:56.000Z,65.5
2022-12-19T21:24:25.000Z,71.7
2022-12-19T21:27:14.000Z,72.9
2022-12-19T21:30:42.000Z,72.3
2022-12-19T21:34:17.000Z,71.3
2022-12-19T21:37:50.000Z,71.4
2022-12-19T21:41:23.000Z,70.9
2022-12-19T21:44:55.000Z,74.5
2022-12-19T21:48:28.000Z,73.7
2022-12-19T21:52:01.000Z,66.7
2022-12-19T21:55:34.000Z,64.8
2022-12-19T21:59:06.000Z,62.5
2022-12-19T22:02:39.000Z,64.2
2022-12-19T22:05:57.000Z,65.7
2022-12-19T22:09:29.000Z,62.6
2022-12-19T22:13:02.000Z,59.4
2022-12-19T22:16:35.000Z,64.4
2022-12-19T22:20:08.000Z,65.2
2022-12-19T22:23:40.000Z,62.7
2022-12-19T22:27:13.000Z,67.8
2022-12-19T22:30:46.000Z,68.3
2022-12-19T22:34:18.000Z,64.2
2022-12-19T22:37:51.000Z,63.6
2022-12-19T22:41:24.000Z,57.2
2022-12-19T22:44:15.000Z,61.5
2022-12-19T22:47:48.000Z,65.4
2022-12-19T22:51:20.000Z,61.6
2022-12-19T22:54:53.000Z,65.1
2022-12-19T22:58:26.000Z,67.7
2022-12-19T23:01:58.000Z,63.9
2022-12-19T23:05:31.000Z,64
2022-12-19T23:09:04.000Z,56.8
2022-12-19T23:12:37.000Z,57.3
2022-12-19T23:16:09.000Z,58.8
2022-12-19T23:19:42.000Z,51
2022-12-19T23:22:33.000Z,51.4
2022-12-19T23:26:06.000Z,59.7
2022-12-19T23:29:41.000Z,60.8
2022-12-19T23:33:13.000Z,58.8
2022-12-19T23:36:46.000Z,61.9
2022-12-19T23:40:36.000Z,66.7
2022-12-19T23:44:10.000Z,62.1
2022-12-19T23:47:42.000Z,62.2
2022-12-19T23:51:15.000Z,64.7
2022-12-19T23:54:48.000Z,61.6
2022-12-19T23:58:20.000Z,62.7
